Time;durP1;ratioP1;P1;durP2;ratioP2;P2;SDS_P1;SDS_P2;PMS_P1;PMS_P2;Temp;Humidity;BMP_temperature;BMP_pressure;BME280_temperature;BME280_humidity;BME280_pressure;Samples;Min_cycle;Max_cycle;Signal;HPM_P1;HPM_P2
2023/07/05 00:00:08;;;;;;;5.78;3.35;;;;;;;20.76;52.72;100372.88;5137416;27;20055;-63
2023/07/05 00:02:35;;;;;;;4.75;3.00;;;;;;;20.75;53.19;100366.59;5137430;27;20093;-64
2023/07/05 00:05:04;;;;;;;6.13;3.00;;;;;;;20.73;53.31;100362.53;5143353;27;20054;-63
2023/07/05 00:07:32;;;;;;;5.22;3.20;;;;;;;20.71;52.83;100348.38;5144203;27;20066;-63
2023/07/05 00:10:00;;;;;;;6.05;3.35;;;;;;;20.70;53.10;100349.50;5152071;27;20103;-63
2023/07/05 00:12:28;;;;;;;5.35;2.88;;;;;;;20.69;53.02;100334.22;5150430;27;20073;-63
2023/07/05 00:14:56;;;;;;;4.38;2.63;;;;;;;20.66;53.24;100327.44;5144681;27;20396;-63
2023/07/05 00:17:25;;;;;;;4.15;3.10;;;;;;;20.64;52.90;100310.56;5141212;27;20192;-63
2023/07/05 00:19:54;;;;;;;4.05;2.58;;;;;;;20.63;53.41;100306.19;5143194;27;20043;-63
2023/07/05 00:22:22;;;;;;;4.55;2.90;;;;;;;20.61;53.32;100300.22;5141762;27;20108;-64
2023/07/05 00:24:52;;;;;;;4.05;2.53;;;;;;;20.61;53.48;100285.78;5143256;27;20095;-64
2023/07/05 00:27:20;;;;;;;4.60;2.60;;;;;;;20.59;53.30;100290.72;5134240;27;20404;-64
2023/07/05 00:29:48;;;;;;;4.75;2.63;;;;;;;20.57;53.42;100280.09;5137156;27;20043;-64
2023/07/05 00:32:15;;;;;;;5.60;2.63;;;;;;;20.56;53.58;100275.75;5139210;27;20058;-64
2023/07/05 00:34:45;;;;;;;6.00;3.03;;;;;;;20.57;53.58;100265.63;5143771;27;20043;-63
2023/07/05 00:37:12;;;;;;;4.53;2.85;;;;;;;20.53;53.66;100243.59;5136392;27;20044;-63
2023/07/05 00:39:40;;;;;;;6.15;3.08;;;;;;;20.53;53.60;100226.41;5141452;27;20055;-64
2023/07/05 00:42:08;;;;;;;4.75;2.70;;;;;;;20.51;53.81;100213.06;5143828;27;20076;-65
2023/07/05 00:44:36;;;;;;;5.55;2.58;;;;;;;20.50;53.82;100225.09;5144892;27;20043;-65
2023/07/05 00:47:14;;;;;;;4.68;2.80;;;;;;;20.49;53.87;100239.84;5142668;27;20063;-63
2023/07/05 00:49:41;;;;;;;3.13;2.22;;;;;;;20.49;53.87;100242.59;5134224;27;20047;-64
2023/07/05 00:52:14;;;;;;;5.47;2.40;;;;;;;20.47;53.70;100242.06;5144125;27;21367;-63
2023/07/05 00:54:45;;;;;;;5.05;2.50;;;;;;;20.48;53.84;100237.44;5136371;27;20043;-64
2023/07/05 00:57:18;;;;;;;4.07;2.70;;;;;;;20.46;53.81;100221.34;5146454;27;20127;-63
2023/07/05 00:59:52;;;;;;;3.25;2.28;;;;;;;20.44;54.02;100227.13;5144024;27;20476;-64
2023/07/05 01:02:20;;;;;;;4.43;2.53;;;;;;;20.44;54.25;100229.84;5140110;27;20458;-63
2023/07/05 01:04:48;;;;;;;4.15;2.65;;;;;;;20.43;54.13;100217.31;5149866;27;20065;-63
2023/07/05 01:07:17;;;;;;;4.63;2.28;;;;;;;20.42;54.22;100220.34;5145111;27;20054;-64
2023/07/05 01:09:47;;;;;;;4.30;2.20;;;;;;;20.42;54.09;100221.16;5143405;27;20051;-64
2023/07/05 01:12:21;;;;;;;4.07;2.13;;;;;;;20.41;54.39;100211.34;5138173;27;20043;-63
2023/07/05 01:14:58;;;;;;;6.80;2.55;;;;;;;20.40;54.48;100217.91;5143394;27;20076;-64
2023/07/05 01:17:37;;;;;;;3.13;2.17;;;;;;;20.39;54.25;100224.47;5140991;27;20044;-64
2023/07/05 01:20:17;;;;;;;3.88;2.30;;;;;;;20.37;54.37;100210.28;5144331;27;20080;-64
2023/07/05 01:23:15;;;;;;;2.80;1.73;;;;;;;20.37;54.30;100218.47;5146796;27;20127;-64
2023/07/05 01:26:08;;;;;;;2.92;2.13;;;;;;;20.35;54.60;100211.72;5138593;27;20051;-63
2023/07/05 01:28:54;;;;;;;4.85;2.47;;;;;;;20.42;54.63;100217.59;5140621;27;20065;-64
2023/07/05 01:31:54;;;;;;;3.38;1.95;;;;;;;20.38;55.24;100220.13;5141682;27;20062;-64
2023/07/05 01:34:31;;;;;;;3.50;2.22;;;;;;;20.36;54.95;100214.13;5146922;27;20047;-64
2023/07/05 01:36:59;;;;;;;3.10;1.98;;;;;;;20.34;55.15;100218.28;5133191;27;20619;-64
2023/07/05 01:39:26;;;;;;;3.90;2.00;;;;;;;20.32;54.97;100215.84;5137645;27;20055;-64
2023/07/05 01:41:55;;;;;;;2.95;1.90;;;;;;;20.31;55.41;100213.41;5140074;27;20080;-64
2023/07/05 01:44:23;;;;;;;4.70;2.10;;;;;;;20.29;55.33;100216.44;5142860;27;20047;-64
2023/07/05 01:46:59;;;;;;;2.83;1.77;;;;;;;20.28;55.27;100224.94;5138185;27;20129;-64
2023/07/05 01:49:44;;;;;;;4.18;2.47;;;;;;;20.26;55.57;100230.69;5143453;27;20069;-64
2023/07/05 01:52:21;;;;;;;3.58;2.13;;;;;;;20.24;55.40;100224.72;5139785;27;20047;-64
2023/07/05 01:54:58;;;;;;;3.00;1.80;;;;;;;20.23;55.53;100241.41;5141131;27;20078;-63
2023/07/05 01:57:31;;;;;;;3.67;2.40;;;;;;;20.23;55.53;100241.41;5149805;27;20119;-64
2023/07/05 02:00:03;;;;;;;3.03;2.00;;;;;;;20.21;56.02;100249.91;5138834;27;20047;-63
2023/07/05 02:02:37;;;;;;;2.05;1.50;;;;;;;20.20;55.75;100255.66;5137678;27;20050;-64
2023/07/05 02:05:08;;;;;;;3.55;1.77;;;;;;;20.18;56.22;100269.59;5132471;27;20058;-64
2023/07/05 02:07:37;;;;;;;5.13;2.38;;;;;;;20.17;55.88;100283.53;5144073;27;20039;-64
2023/07/05 02:10:05;;;;;;;4.53;1.63;;;;;;;20.15;56.15;100292.84;5134405;27;20044;-64
2023/07/05 02:12:33;;;;;;;3.78;1.70;;;;;;;20.13;55.78;100307.88;5143937;27;20073;-64
2023/07/05 02:15:01;;;;;;;3.22;1.73;;;;;;;20.11;55.38;100319.09;5143409;27;20159;-64
2023/07/05 02:17:29;;;;;;;5.32;2.10;;;;;;;20.07;55.17;100311.81;5137180;27;20070;-64
2023/07/05 02:19:58;;;;;;;2.72;1.70;;;;;;;20.01;54.87;100324.72;5141931;27;20083;-64
2023/07/05 02:22:26;;;;;;;3.42;1.88;;;;;;;20.03;54.76;100338.88;5145724;27;20090;-64
2023/07/05 02:24:55;;;;;;;3.00;1.60;;;;;;;20.02;54.56;100336.44;5149895;27;20051;-64
2023/07/05 02:27:23;;;;;;;6.63;2.47;;;;;;;19.97;53.96;100342.78;5151394;27;20052;-64
2023/07/05 02:29:51;;;;;;;8.20;2.22;;;;;;;19.93;53.86;100340.94;5142665;27;20048;-64
2023/07/05 02:32:20;;;;;;;3.15;1.80;;;;;;;19.91;53.64;100345.88;5142712;27;20047;-64
2023/07/05 02:34:48;;;;;;;2.22;1.80;;;;;;;19.88;53.42;100357.38;5148038;27;20106;-65
2023/07/05 02:37:17;;;;;;;5.68;1.95;;;;;;;19.85;53.49;100347.06;5144557;27;20437;-64
2023/07/05 02:39:45;;;;;;;3.00;1.83;;;;;;;19.83;53.49;100355.53;5136692;27;20066;-64
2023/07/05 02:42:13;;;;;;;2.95;1.90;;;;;;;19.81;53.49;100355.03;5141495;27;20039;-63
2023/07/05 02:44:41;;;;;;;3.13;1.77;;;;;;;19.91;53.51;100356.78;5145265;27;20058;-63
2023/07/05 02:47:09;;;;;;;6.25;2.10;;;;;;;19.84;53.59;100359.88;5147187;27;20047;-63
2023/07/05 02:49:36;;;;;;;3.70;2.20;;;;;;;19.81;53.03;100352.31;5136375;27;20062;-64
2023/07/05 02:52:05;;;;;;;2.92;1.92;;;;;;;19.78;53.24;100344.72;5146900;27;20429;-63
2023/07/05 02:54:34;;;;;;;3.85;1.98;;;;;;;19.78;53.15;100350.16;5139556;27;20051;-63
2023/07/05 02:57:02;;;;;;;3.20;1.88;;;;;;;19.75;53.08;100350.75;5138498;27;20419;-64
2023/07/05 02:59:30;;;;;;;6.63;2.35;;;;;;;19.74;53.16;100354.59;5143088;27;20077;-64
2023/07/05 03:01:58;;;;;;;3.38;1.77;;;;;;;19.71;53.15;100361.44;5149730;27;20059;-64
2023/07/05 03:04:27;;;;;;;3.00;1.95;;;;;;;19.75;53.35;100337.94;5146266;27;20072;-63
2023/07/05 03:06:55;;;;;;;5.05;1.92;;;;;;;19.71;52.82;100353.25;5141157;27;20275;-64
2023/07/05 03:09:23;;;;;;;4.28;2.10;;;;;;;19.75;52.75;100358.94;5139733;27;20050;-64
2023/07/05 03:11:52;;;;;;;4.38;2.45;;;;;;;19.69;52.67;100349.19;5138409;27;20062;-64
2023/07/05 03:14:20;;;;;;;5.00;2.47;;;;;;;19.69;53.04;100350.00;5133342;27;20358;-63
2023/07/05 03:16:47;;;;;;;3.95;2.53;;;;;;;19.66;52.59;100361.50;5137976;27;20107;-63
2023/07/05 03:19:15;;;;;;;6.88;2.55;;;;;;;19.65;52.74;100361.81;5146404;27;20057;-64
2023/07/05 03:21:44;;;;;;;4.80;2.42;;;;;;;19.62;52.94;100360.47;5143092;27;20052;-64
2023/07/05 03:24:12;;;;;;;3.47;2.20;;;;;;;19.61;52.63;100352.59;5140929;27;20411;-64
2023/07/05 03:26:40;;;;;;;4.57;2.63;;;;;;;19.58;52.56;100348.53;5140930;27;20043;-63
2023/07/05 03:29:09;;;;;;;3.42;2.13;;;;;;;19.57;52.71;100366.00;5146547;27;20491;-63
2023/07/05 03:31:37;;;;;;;4.97;2.30;;;;;;;19.56;52.62;100355.38;5144552;27;20051;-63
2023/07/05 03:34:04;;;;;;;3.83;2.72;;;;;;;19.54;52.53;100357.59;5147168;27;20050;-63
2023/07/05 03:36:32;;;;;;;6.30;3.03;;;;;;;19.50;52.22;100358.16;5132619;27;20055;-63
2023/07/05 03:39:00;;;;;;;8.77;2.80;;;;;;;19.50;52.62;100357.34;5139333;27;20063;-63
2023/07/05 03:41:28;;;;;;;4.72;2.38;;;;;;;19.48;52.63;100349.44;5146236;27;20066;-63
2023/07/05 03:43:58;;;;;;;5.57;2.50;;;;;;;19.44;52.27;100344.88;5155478;27;20058;-63
2023/07/05 03:46:28;;;;;;;4.40;2.58;;;;;;;19.44;52.41;100359.31;5143622;27;20039;-62
2023/07/05 03:48:56;;;;;;;5.75;2.88;;;;;;;19.43;52.42;100354.16;5142975;27;20043;-64
2023/07/05 03:51:25;;;;;;;5.03;2.60;;;;;;;19.36;52.38;100332.72;5132358;27;20059;-63
2023/07/05 03:53:55;;;;;;;5.30;2.50;;;;;;;19.40;52.38;100352.03;5142526;27;20040;-64
2023/07/05 03:56:24;;;;;;;6.63;2.75;;;;;;;19.38;52.33;100341.41;5147233;27;20058;-64
2023/07/05 03:58:52;;;;;;;5.40;2.75;;;;;;;19.37;52.29;100338.97;5135993;27;20047;-62
2023/07/05 04:01:22;;;;;;;4.57;2.70;;;;;;;19.35;52.42;100342.00;5131869;27;20043;-64
2023/07/05 04:03:54;;;;;;;6.65;3.60;;;;;;;19.33;52.30;100346.13;5145321;27;20080;-64
2023/07/05 04:06:23;;;;;;;5.13;3.15;;;;;;;19.32;52.30;100347.22;5135151;27;20107;-64
2023/07/05 04:08:51;;;;;;;5.70;2.85;;;;;;;19.35;52.35;100352.09;5141216;27;20069;-63
2023/07/05 04:11:20;;;;;;;5.03;2.97;;;;;;;19.32;52.22;100347.22;5144151;27;20141;-64
2023/07/05 04:13:49;;;;;;;6.32;2.85;;;;;;;19.25;52.05;100339.41;5141413;27;20047;-63
2023/07/05 04:16:18;;;;;;;5.63;3.03;;;;;;;19.27;52.00;100350.81;5143041;27;20039;-64
2023/07/05 04:18:50;;;;;;;6.03;3.10;;;;;;;19.26;51.90;100346.47;5137574;27;20081;-64
2023/07/05 04:21:19;;;;;;;5.13;3.10;;;;;;;19.24;52.05;100348.69;5138459;27;20047;-64
2023/07/05 04:23:48;;;;;;;4.97;2.70;;;;;;;19.23;52.09;100351.69;5138163;27;20202;-64
2023/07/05 04:26:17;;;;;;;6.07;3.13;;;;;;;19.21;52.07;100365.59;5142887;27;20047;-64
2023/07/05 04:28:45;;;;;;;5.20;3.42;;;;;;;19.21;51.98;100365.59;5138258;27;20096;-64
2023/07/05 04:31:17;;;;;;;6.22;2.85;;;;;;;19.18;51.96;100372.44;5144354;27;20047;-64
2023/07/05 04:33:45;;;;;;;5.70;2.88;;;;;;;19.17;51.92;100351.75;5142394;27;20081;-64
2023/07/05 04:36:13;;;;;;;4.45;2.72;;;;;;;19.16;52.02;100361.03;5138172;27;20050;-63
2023/07/05 04:38:56;;;;;;;4.03;2.75;;;;;;;19.15;52.02;100364.84;5144632;27;20173;-64
2023/07/05 04:41:24;;;;;;;4.88;2.95;;;;;;;19.14;51.66;100370.59;5140131;27;20056;-64
2023/07/05 04:43:52;;;;;;;6.22;2.97;;;;;;;19.12;51.83;100376.31;5132081;27;20046;-64
2023/07/05 04:46:20;;;;;;;6.55;2.70;;;;;;;19.19;51.59;100374.06;5139968;27;20046;-63
2023/07/05 04:48:48;;;;;;;8.82;3.20;;;;;;;19.16;51.84;100373.84;5144002;27;20138;-63
2023/07/05 04:51:16;;;;;;;5.85;3.10;;;;;;;19.14;51.71;100365.97;5148847;27;20069;-64
2023/07/05 04:53:44;;;;;;;6.65;3.10;;;;;;;19.11;51.53;100365.72;5139806;27;20047;-63
2023/07/05 04:56:15;;;;;;;5.75;2.97;;;;;;;19.10;51.75;100358.66;5141025;27;20047;-63
2023/07/05 04:58:43;;;;;;;5.35;2.97;;;;;;;19.08;51.61;100361.66;5143321;27;20114;-64
2023/07/05 05:01:13;;;;;;;6.03;3.13;;;;;;;19.08;51.70;100358.94;5144132;27;20069;-64
2023/07/05 05:03:41;;;;;;;5.80;3.05;;;;;;;19.06;51.40;100376.72;5138041;27;20047;-63
2023/07/05 05:06:09;;;;;;;6.03;3.13;;;;;;;19.01;51.25;100360.44;5140505;27;20051;-67
2023/07/05 05:08:37;;;;;;;5.82;3.03;;;;;;;19.07;52.42;100365.50;5133349;27;20064;-66
2023/07/05 05:11:06;;;;;;;5.55;3.35;;;;;;;19.02;51.20;100373.75;5133109;27;20077;-66
2023/07/05 05:13:36;;;;;;;4.55;2.60;;;;;;;19.01;51.38;100366.69;5140640;27;20155;-69
2023/07/05 05:16:05;;;;;;;4.57;3.13;;;;;;;18.99;51.20;100374.31;5135249;27;20054;-66
2023/07/05 05:18:35;;;;;;;4.65;2.95;;;;;;;18.98;51.35;100388.25;5145711;27;20109;-66
2023/07/05 05:21:03;;;;;;;5.88;2.85;;;;;;;18.96;51.49;100393.97;5143536;27;20059;-62
2023/07/05 05:23:31;;;;;;;9.88;2.47;;;;;;;18.96;51.35;100393.16;5131336;27;20043;-64
2023/07/05 05:25:59;;;;;;;5.68;2.60;;;;;;;19.00;51.35;100396.94;5141068;27;20043;-63
2023/07/05 05:28:28;;;;;;;5.80;3.13;;;;;;;18.96;51.04;100390.44;5140241;27;20050;-65
2023/07/05 05:31:03;;;;;;;6.72;3.63;;;;;;;18.94;51.24;100389.91;5130959;27;20046;-65
2023/07/05 05:33:31;;;;;;;5.22;3.33;;;;;;;18.91;51.17;100383.13;5143144;27;20104;-66
2023/07/05 05:35:59;;;;;;;5.00;2.75;;;;;;;18.89;51.44;100377.16;5134987;27;20559;-64
2023/07/05 05:38:27;;;;;;;5.18;2.85;;;;;;;18.87;51.37;100386.72;4783748;27;10000100;-65
2023/07/05 05:41:02;;;;;;;7.72;3.88;;;;;;;18.88;51.46;100388.34;5148498;27;20050;-64
2023/07/05 05:43:30;;;;;;;9.13;3.00;;;;;;;18.87;51.43;100401.16;5136421;28;20081;-64
2023/07/05 05:45:57;;;;;;;6.30;2.70;;;;;;;18.88;51.58;100396.50;5142054;28;20054;-65
2023/07/05 05:48:27;;;;;;;8.10;3.05;;;;;;;18.87;51.48;100403.06;5138299;28;20051;-65
2023/07/05 05:50:54;;;;;;;5.45;3.67;;;;;;;18.88;51.05;100405.50;5139817;27;20043;-65
2023/07/05 05:53:23;;;;;;;11.00;2.72;;;;;;;18.86;51.06;100399.53;5142920;28;20059;-65
2023/07/05 05:55:50;;;;;;;6.18;2.90;;;;;;;18.83;51.27;100402.81;5141036;27;20096;-64
2023/07/05 05:58:18;;;;;;;8.35;2.75;;;;;;;18.82;51.33;100406.63;5145952;27;20733;-61
2023/07/05 06:00:46;;;;;;;6.85;2.88;;;;;;;18.75;51.40;100409.69;5140139;27;20060;-62
2023/07/05 06:03:14;;;;;;;6.22;2.80;;;;;;;18.71;51.32;100418.72;5145245;27;20204;-62
2023/07/05 06:05:44;;;;;;;5.63;3.30;;;;;;;18.69;51.41;100408.13;5141033;27;20062;-61
2023/07/05 06:08:11;;;;;;;4.57;2.60;;;;;;;18.76;51.48;100448.63;5139782;27;20067;-65
2023/07/05 06:10:39;;;;;;;8.57;3.28;;;;;;;18.73;51.30;100435.59;5139173;27;20224;-63
2023/07/05 06:13:07;;;;;;;5.55;3.22;;;;;;;18.70;51.03;100431.53;5136370;27;20138;-63
2023/07/05 06:15:35;;;;;;;6.00;2.85;;;;;;;18.69;50.96;100431.81;5146129;27;20047;-63
2023/07/05 06:18:03;;;;;;;4.90;2.50;;;;;;;18.66;50.82;100460.41;5134808;27;20622;-64
2023/07/05 06:20:33;;;;;;;4.80;2.40;;;;;;;18.66;50.48;100452.25;5147885;27;20406;-63
2023/07/05 06:23:03;;;;;;;5.38;3.00;;;;;;;18.65;50.98;100449.81;5144957;27;20070;-63
2023/07/05 06:25:31;;;;;;;4.65;2.42;;;;;;;18.62;51.06;100472.97;5143322;27;20051;-63
2023/07/05 06:27:59;;;;;;;5.13;2.45;;;;;;;18.65;51.11;100461.50;5136670;27;20047;-63
2023/07/05 06:30:27;;;;;;;6.47;2.50;;;;;;;18.60;50.82;100472.41;5147209;27;20043;-62
2023/07/05 06:32:55;;;;;;;10.23;3.20;;;;;;;18.60;50.95;100469.69;5144762;27;20043;-65
2023/07/05 06:35:23;;;;;;;4.60;2.35;;;;;;;18.68;51.27;100473.75;5148048;27;20038;-64
2023/07/05 06:37:51;;;;;;;4.93;2.30;;;;;;;18.64;50.99;100481.66;5148354;27;20460;-65
2023/07/05 06:40:20;;;;;;;5.30;2.33;;;;;;;18.64;50.80;100472.69;5134594;27;20068;-64
2023/07/05 06:42:48;;;;;;;7.75;2.30;;;;;;;18.65;50.86;100477.84;5146540;27;20421;-65
2023/07/05 06:45:16;;;;;;;7.40;2.83;;;;;;;18.66;50.64;100474.03;5136108;27;20050;-64
2023/07/05 06:47:45;;;;;;;5.40;2.08;;;;;;;18.68;50.78;100488.16;5148184;27;20072;-62
2023/07/05 06:50:14;;;;;;;8.68;2.60;;;;;;;18.71;51.00;100494.94;5143495;27;20051;-63
2023/07/05 06:52:42;;;;;;;6.78;2.50;;;;;;;18.75;51.08;100499.53;5138829;27;20082;-63
2023/07/05 06:55:11;;;;;;;3.60;2.13;;;;;;;18.78;50.87;100484.53;5128771;27;20052;-63
2023/07/05 06:57:40;;;;;;;3.20;2.05;;;;;;;18.77;50.68;100505.50;5146278;27;20072;-63
2023/07/05 07:00:10;;;;;;;5.20;2.42;;;;;;;18.85;50.77;100504.09;5136797;27;20039;-63
2023/07/05 07:02:38;;;;;;;5.30;2.17;;;;;;;18.82;50.34;100505.47;5139411;27;20051;-65
2023/07/05 07:05:06;;;;;;;7.80;2.05;;;;;;;18.83;50.64;100509.00;5143635;27;20077;-65
2023/07/05 07:07:34;;;;;;;4.63;2.10;;;;;;;18.86;50.46;100511.16;5146671;27;20043;-66
2023/07/05 07:10:02;;;;;;;3.58;1.85;;;;;;;18.80;50.49;100525.91;5133746;27;20058;-64
2023/07/05 07:12:30;;;;;;;4.53;2.10;;;;;;;18.75;50.10;100542.28;5135000;27;20050;-63
2023/07/05 07:14:59;;;;;;;5.20;2.00;;;;;;;18.75;50.04;100534.94;5134366;27;20055;-66
2023/07/05 07:17:27;;;;;;;3.97;1.75;;;;;;;18.75;50.21;100531.41;5146526;27;20559;-63
2023/07/05 07:19:55;;;;;;;3.80;1.67;;;;;;;18.70;50.01;100534.97;5144607;27;20039;-64
2023/07/05 07:22:24;;;;;;;7.15;1.92;;;;;;;18.67;50.02;100543.72;5139844;27;20108;-62
2023/07/05 07:24:52;;;;;;;2.58;1.67;;;;;;;18.65;50.04;100545.09;5141229;27;20051;-62
2023/07/05 07:27:19;;;;;;;5.65;2.28;;;;;;;18.64;50.10;100554.34;5141447;27;20061;-62
2023/07/05 07:29:47;;;;;;;5.53;1.70;;;;;;;18.61;50.05;100555.72;5145825;27;20123;-62
2023/07/05 07:32:16;;;;;;;5.47;1.65;;;;;;;18.60;51.75;100559.50;5139554;27;20050;-61
2023/07/05 07:34:44;;;;;;;8.95;2.03;;;;;;;18.45;50.75;100563.13;5130857;27;20055;-61
2023/07/05 07:37:12;;;;;;;4.78;2.20;;;;;;;18.45;51.11;100573.22;5135723;27;20051;-62
2023/07/05 07:39:40;;;;;;;5.45;1.90;;;;;;;18.51;50.79;100567.47;5133933;27;20043;-62
2023/07/05 07:42:08;;;;;;;4.82;2.08;;;;;;;18.53;50.83;100565.25;5142166;27;20047;-62
2023/07/05 07:44:36;;;;;;;3.53;1.63;;;;;;;18.50;51.13;100589.50;5141008;27;20051;-62
2023/07/05 07:47:04;;;;;;;5.82;2.28;;;;;;;18.49;51.13;100594.13;5133942;27;20047;-62
2023/07/05 07:49:34;;;;;;;6.35;2.55;;;;;;;18.47;51.06;100592.78;5137670;27;20072;-62
2023/07/05 07:52:01;;;;;;;7.00;2.03;;;;;;;18.35;51.34;100590.41;5132792;27;20043;-62
2023/07/05 07:54:31;;;;;;;3.70;1.77;;;;;;;18.43;51.49;100597.16;5136912;27;20089;-62
2023/07/05 07:56:59;;;;;;;6.00;1.70;;;;;;;18.40;51.58;100592.28;5141949;27;20071;-62
2023/07/05 07:59:26;;;;;;;9.18;2.10;;;;;;;18.40;51.48;100603.16;5136819;27;20048;-62
2023/07/05 08:01:54;;;;;;;5.57;1.90;;;;;;;18.39;51.51;100594.19;5138547;27;20107;-63
2023/07/05 08:04:22;;;;;;;9.88;2.08;;;;;;;18.39;51.43;100598.81;5137143;27;20051;-62
2023/07/05 08:06:52;;;;;;;5.43;2.20;;;;;;;18.38;51.44;100598.00;5131689;27;20043;-62
2023/07/05 08:09:22;;;;;;;4.00;1.80;;;;;;;18.38;51.11;100594.47;5136825;27;20057;-62
2023/07/05 08:11:50;;;;;;;3.22;1.65;;;;;;;18.38;51.67;100606.16;5137493;27;20043;-62
2023/07/05 08:14:18;;;;;;;2.65;1.77;;;;;;;18.40;51.25;100606.69;5133349;27;20105;-62
2023/07/05 08:16:47;;;;;;;4.63;2.05;;;;;;;18.41;51.36;100604.78;5140240;27;20139;-62
2023/07/05 08:19:15;;;;;;;4.43;1.65;;;;;;;18.42;51.24;100620.03;5137738;27;20096;-62
2023/07/05 08:21:44;;;;;;;6.15;1.98;;;;;;;18.48;50.93;100613.47;5133307;27;20039;-62
2023/07/05 08:24:15;;;;;;;6.47;1.70;;;;;;;18.42;51.07;100615.41;5135539;27;20058;-62
2023/07/05 08:26:55;;;;;;;4.00;1.70;;;;;;;18.40;50.94;100627.66;5140960;27;20043;-62
2023/07/05 08:29:23;;;;;;;4.60;1.70;;;;;;;18.39;51.12;100626.03;5139442;27;20043;-62
2023/07/05 08:31:51;;;;;;;6.57;1.80;;;;;;;18.39;51.01;100628.75;5139046;27;20256;-61
2023/07/05 08:34:19;;;;;;;4.28;1.80;;;;;;;18.46;50.99;100640.16;5136171;27;20044;-63
2023/07/05 08:36:47;;;;;;;5.80;1.75;;;;;;;18.42;50.71;100661.66;5136934;27;20051;-61
2023/07/05 08:39:16;;;;;;;6.68;2.00;;;;;;;18.42;50.87;100653.50;5139727;27;20053;-62
2023/07/05 08:42:12;;;;;;;5.32;1.65;;;;;;;18.39;50.82;100654.06;5134143;27;20054;-62
2023/07/05 08:44:54;;;;;;;9.52;2.72;;;;;;;18.40;51.16;100654.88;5127033;27;20048;-63
2023/07/05 08:47:26;;;;;;;8.23;1.90;;;;;;;18.41;51.27;100686.44;5137747;27;20050;-62
2023/07/05 08:50:05;;;;;;;7.10;2.10;;;;;;;18.40;50.97;100684.78;5136546;27;20042;-62
2023/07/05 08:53:01;;;;;;;5.88;1.70;;;;;;;18.39;51.01;100675.00;5139416;27;20051;-62
2023/07/05 08:55:42;;;;;;;2.97;1.63;;;;;;;18.39;51.24;100680.44;5141576;27;20070;-62
2023/07/05 08:58:18;;;;;;;8.63;2.08;;;;;;;18.40;51.37;100676.63;5136915;27;20120;-63
2023/07/05 09:00:53;;;;;;;8.07;2.65;;;;;;;18.42;51.07;100686.16;5135669;27;20097;-63
2023/07/05 09:03:23;;;;;;;3.88;2.28;;;;;;;18.42;50.85;100685.34;5138029;27;20051;-63
2023/07/05 09:06:04;;;;;;;6.18;1.83;;;;;;;18.43;51.28;100684.25;5130983;27;20051;-63
2023/07/05 09:08:45;;;;;;;5.82;1.50;;;;;;;18.43;51.07;100698.66;5145399;27;20108;-62
2023/07/05 09:11:21;;;;;;;5.15;2.05;;;;;;;18.49;51.17;100713.06;5143227;27;20426;-62
2023/07/05 09:13:48;;;;;;;5.60;1.60;;;;;;;18.47;50.74;100704.38;5131142;27;20052;-62
2023/07/05 09:16:26;;;;;;;7.13;2.58;;;;;;;18.45;50.73;100710.09;5129471;27;20039;-62
2023/07/05 09:19:05;;;;;;;5.25;1.75;;;;;;;18.45;50.54;100720.16;5140689;27;20082;-62
2023/07/05 09:21:38;;;;;;;5.90;2.40;;;;;;;18.44;50.45;100723.97;5135403;27;20065;-63
2023/07/05 09:24:18;;;;;;;7.57;1.90;;;;;;;18.47;50.67;100731.56;5140583;27;20054;-63
2023/07/05 09:26:53;;;;;;;5.72;1.63;;;;;;;18.46;50.54;100719.88;5139310;27;20508;-63
2023/07/05 09:29:30;;;;;;;5.75;2.25;;;;;;;18.48;50.50;100738.66;5142468;27;20147;-63
2023/07/05 09:32:04;;;;;;;6.00;2.13;;;;;;;18.48;50.36;100738.66;5143034;27;20446;-62
2023/07/05 09:34:38;;;;;;;7.88;2.28;;;;;;;18.48;50.18;100744.09;5145287;27;20058;-62
2023/07/05 09:37:15;;;;;;;7.32;2.13;;;;;;;18.49;50.22;100741.09;5143442;27;20063;-61
2023/07/05 09:39:53;;;;;;;5.30;1.73;;;;;;;18.52;50.16;100761.50;5137695;27;20062;-63
2023/07/05 09:42:28;;;;;;;6.05;2.03;;;;;;;18.49;49.77;100770.22;5136477;27;20051;-63
2023/07/05 09:44:56;;;;;;;16.48;2.47;;;;;;;18.49;49.95;100754.69;5141418;27;20043;-65
2023/07/05 09:47:24;;;;;;;6.78;2.22;;;;;;;18.51;50.21;100779.75;5135295;28;20043;-62
2023/07/05 09:49:52;;;;;;;12.68;2.55;;;;;;;18.60;50.67;100774.53;5136963;27;20051;-62
2023/07/05 09:52:24;;;;;;;13.02;2.53;;;;;;;18.60;50.46;100776.44;5139867;27;20043;-61
2023/07/05 09:54:58;;;;;;;4.90;1.73;;;;;;;18.58;49.46;100794.97;5142443;27;20403;-60
2023/07/05 09:57:27;;;;;;;9.95;2.35;;;;;;;18.57;49.96;100783.25;5135213;28;20072;-60
2023/07/05 09:59:55;;;;;;;9.02;1.98;;;;;;;18.55;49.76;100799.06;5148226;27;20039;-60
2023/07/05 10:02:32;;;;;;;14.00;2.40;;;;;;;18.54;49.60;100790.06;4994640;27;10001398;-61
2023/07/05 10:05:14;;;;;;;10.88;2.47;;;;;;;18.54;49.62;100794.69;5127795;27;20082;-60
2023/07/05 10:07:55;;;;;;;9.25;2.33;;;;;;;18.54;49.54;100787.34;5137206;27;20074;-61
2023/07/05 10:10:27;;;;;;;4.38;1.55;;;;;;;18.54;49.30;100814.56;5130865;28;20051;-61
2023/07/05 10:13:12;;;;;;;6.25;2.00;;;;;;;18.53;49.18;100817.56;5138916;27;20039;-61
2023/07/05 10:15:47;;;;;;;5.43;1.73;;;;;;;18.53;49.11;100809.41;5137088;28;20058;-61
2023/07/05 10:18:26;;;;;;;9.23;2.03;;;;;;;18.54;49.19;100809.13;5132898;27;20043;-61
2023/07/05 10:20:54;;;;;;;3.92;1.75;;;;;;;18.57;49.11;100834.97;5140348;28;20102;-61
2023/07/05 10:23:22;;;;;;;9.05;2.05;;;;;;;18.59;48.99;100834.72;5132709;27;20108;-61
2023/07/05 10:25:52;;;;;;;4.32;1.52;;;;;;;18.63;48.46;100850.25;5133361;27;20085;-61
2023/07/05 10:28:28;;;;;;;4.57;1.77;;;;;;;18.61;48.26;100848.88;5140760;27;20062;-61
2023/07/05 10:30:59;;;;;;;4.93;1.90;;;;;;;18.56;47.70;100852.41;5134105;28;20051;-61
2023/07/05 10:33:29;;;;;;;5.32;1.80;;;;;;;18.55;48.35;100845.31;5131312;27;20062;-61
2023/07/05 10:36:02;;;;;;;9.20;2.15;;;;;;;18.54;48.34;100858.13;5142654;27;20051;-62
2023/07/05 10:38:32;;;;;;;6.90;1.73;;;;;;;18.56;48.31;100860.56;5142807;27;20127;-61
2023/07/05 10:41:05;;;;;;;3.47;1.85;;;;;;;18.59;48.18;100867.38;5135920;27;20047;-61
2023/07/05 10:43:35;;;;;;;4.03;1.58;;;;;;;18.60;47.65;100871.72;5146191;27;20043;-61
2023/07/05 10:46:03;;;;;;;4.80;1.60;;;;;;;18.61;48.10;100868.75;5142519;27;20503;-61
2023/07/05 10:48:40;;;;;;;7.82;1.67;;;;;;;18.62;48.05;100869.56;5143141;27;20066;-61
2023/07/05 10:51:15;;;;;;;;;;;;;;;18.62;47.94;100873.09;5145591;27;20047;-61
2023/07/05 10:53:47;;;;;;;;;;;;;;;18.63;47.56;100872.03;5148165;27;19927;-61
2023/07/05 10:56:17;;;;;;;;;;;;;;;18.65;47.53;100886.19;5148897;27;19968;-61
2023/07/05 10:58:50;;;;;;;;;;;;;;;18.66;47.76;100882.38;5142068;27;19920;-61
2023/07/05 11:01:21;;;;;;;;;;;;;;;18.66;47.26;100884.28;5136477;27;19934;-61
2023/07/05 11:03:52;;;;;;;;;;;;;;;18.65;47.19;100878.00;5141737;27;19919;-61
2023/07/05 11:06:21;;;;;;;;;;;;;;;18.67;47.14;100892.16;5147863;27;19919;-61
2023/07/05 11:08:49;;;;;;;;;;;;;;;18.67;47.20;100899.50;5142923;27;20446;-61
2023/07/05 11:11:19;;;;;;;;;;;;;;;18.66;47.12;100901.41;5140997;27;19924;-61
2023/07/05 11:13:49;;;;;;;;;;;;;;;18.67;47.29;100889.44;5140607;27;19927;-62
2023/07/05 11:16:18;;;;;;;;;;;;;;;18.68;46.83;100914.75;5148566;27;19920;-61
2023/07/05 11:18:47;;;;;;;;;;;;;;;18.69;47.23;100919.09;5138267;27;19919;-61
2023/07/05 11:21:35;;;;;;;;;;;;;;;18.68;46.94;100903.88;5139148;27;19945;-61
2023/07/05 11:24:05;;;;;;;;;;;;;;;18.69;47.10;100900.06;5137686;27;19950;-61
2023/07/05 11:26:41;;;;;;;;;;;;;;;18.71;46.97;100903.31;5137808;27;19976;-62
2023/07/05 11:29:27;;;;;;;;;;;;;;;18.73;47.00;100910.13;5136874;27;19928;-62
2023/07/05 11:32:01;;;;;;;;;;;;;;;18.74;46.61;100902.78;5137031;27;19924;-62
2023/07/05 11:34:33;;;;;;;;;;;;;;;18.75;46.64;100916.09;5137372;27;19926;-61
2023/07/05 11:37:15;;;;;;;;;;;;;;;18.77;45.92;100915.84;5138246;27;19919;-61
2023/07/05 11:39:45;;;;;;;;;;;;;;;18.77;46.74;100921.28;5141209;27;19972;-61
2023/07/05 11:42:28;;;;;;;;;;;;;;;18.82;47.14;100913.09;5138525;27;19927;-62
2023/07/05 11:45:10;;;;;;;;;;;;;;;18.85;47.13;100928.91;5125802;27;19972;-62